Time;durP1;ratioP1;P1;durP2;ratioP2;P2;SDS_P1;SDS_P2;PMS_P1;PMS_P2;Temp;Humidity;BMP_temperature;BMP_pressure;BME280_temperature;BME280_humidity;BME280_pressure;Samples;Min_cycle;Max_cycle;Signal;HPM_P1;HPM_P2
2022/08/13 00:01:24;;;;;;;2.43;2.13;;;19.90;46.50;;;;;;6249404;23;20384;-50
2022/08/13 00:03:52;;;;;;;2.30;2.00;;;19.80;46.40;;;;;;6249565;23;20720;-50
2022/08/13 00:09:08;;;;;;;2.97;2.67;;;19.80;46.60;;;;;;6249852;23;20411;-51
2022/08/13 00:14:24;;;;;;;2.40;2.03;;;19.80;46.80;;;;;;6250466;23;20414;-51
2022/08/13 00:16:50;;;;;;;2.33;2.13;;;19.70;46.90;;;;;;6250138;23;20356;-51
2022/08/13 00:19:19;;;;;;;2.97;2.60;;;19.70;47.10;;;;;;6250612;23;20381;-50
2022/08/13 00:21:47;;;;;;;2.70;2.50;;;19.70;47.00;;;;;;6249146;23;20380;-50
2022/08/13 00:24:13;;;;;;;2.50;2.30;;;19.70;47.00;;;;;;6250555;23;20388;-52
2022/08/13 00:26:39;;;;;;;2.93;2.60;;;19.70;47.40;;;;;;6249939;23;20358;-52
2022/08/13 00:29:04;;;;;;;2.43;2.10;;;19.70;46.90;;;;;;6250130;23;20850;-53
2022/08/13 00:31:31;;;;;;;2.77;2.40;;;19.70;47.00;;;;;;6249897;23;20137;-50
2022/08/13 00:33:58;;;;;;;2.83;2.10;;;19.60;47.10;;;;;;6248993;23;20195;-52
2022/08/13 00:36:24;;;;;;;3.50;2.37;;;19.50;47.30;;;;;;6249516;23;20362;-49
2022/08/13 00:38:53;;;;;;;2.23;2.03;;;19.50;47.50;;;;;;6249766;23;20383;-49
2022/08/13 00:41:37;;;;;;;3.30;2.43;;;19.40;47.50;;;;;;6249358;23;20159;-50
2022/08/13 00:44:05;;;;;;;2.20;2.00;;;19.40;47.80;;;;;;6248958;23;20402;-50
2022/08/13 00:46:32;;;;;;;3.03;2.50;;;19.50;47.90;;;;;;6250202;23;20410;-48
2022/08/13 00:48:58;;;;;;;2.50;2.30;;;19.40;48.00;;;;;;6249565;23;20406;-51
2022/08/13 00:51:26;;;;;;;2.67;2.47;;;19.40;48.10;;;;;;6248978;23;20354;-51
2022/08/13 00:53:54;;;;;;;2.60;2.40;;;19.40;48.30;;;;;;6248131;23;20823;-49
2022/08/13 00:56:23;;;;;;;4.00;2.13;;;19.30;48.40;;;;;;6249353;23;20353;-51
2022/08/13 00:58:50;;;;;;;3.13;2.43;;;19.30;48.50;;;;;;6249422;23;20414;-49
2022/08/13 01:01:18;;;;;;;3.00;2.67;;;19.20;48.50;;;;;;6249531;22;20360;-49
2022/08/13 01:03:44;;;;;;;2.40;2.20;;;19.20;48.80;;;;;;6249566;23;20418;-50
2022/08/13 01:06:10;;;;;;;4.20;2.67;;;19.20;48.70;;;;;;6249162;23;20415;-50
2022/08/13 01:11:58;;;;;;;4.40;2.60;;;19.20;48.90;;;;;;6249166;23;20179;-49
2022/08/13 01:14:27;;;;;;;2.67;2.47;;;19.20;49.10;;;;;;6250110;23;20387;-50
2022/08/13 01:16:53;;;;;;;2.83;2.53;;;19.10;49.20;;;;;;6249513;23;20355;-50
2022/08/13 01:19:19;;;;;;;3.17;2.67;;;19.20;49.40;;;;;;6249399;23;20485;-49
2022/08/13 01:21:50;;;;;;;2.67;2.47;;;19.10;49.30;;;;;;6247864;23;20468;-52
2022/08/13 01:24:16;;;;;;;3.20;3.00;;;19.10;49.30;;;;;;6247936;23;20428;-50
2022/08/13 01:26:41;;;;;;;2.80;2.60;;;19.10;49.30;;;;;;6249173;23;20403;-48
2022/08/13 01:29:09;;;;;;;3.90;2.87;;;19.10;49.50;;;;;;6247444;23;20170;-50
2022/08/13 01:31:35;;;;;;;3.90;2.23;;;19.10;49.60;;;;;;6248709;22;20144;-50
2022/08/13 01:34:01;;;;;;;2.33;2.13;;;19.00;49.70;;;;;;6249698;23;20508;-50
2022/08/13 01:36:30;;;;;;;3.20;2.43;;;18.90;49.80;;;;;;6248914;23;20138;-50
2022/08/13 01:39:05;;;;;;;2.50;2.30;;;18.90;50.00;;;;;;6249754;23;20376;-49
2022/08/13 01:41:34;;;;;;;2.67;2.23;;;18.90;50.00;;;;;;6249051;23;20362;-49
2022/08/13 01:44:04;;;;;;;10.93;3.47;;;18.80;50.10;;;;;;6249418;23;20721;-53
2022/08/13 01:52:04;;;;;;;2.50;2.30;;;18.80;50.20;;;;;;6248177;23;20405;-49
2022/08/13 01:54:32;;;;;;;2.80;2.57;;;18.80;50.20;;;;;;6248707;23;20391;-50
2022/08/13 01:57:00;;;;;;;2.90;2.70;;;18.70;50.20;;;;;;6249550;23;20356;-51
2022/08/13 01:59:25;;;;;;;3.20;2.90;;;18.70;50.40;;;;;;6249433;23;20638;-49
2022/08/13 02:01:53;;;;;;;2.80;2.30;;;18.70;50.60;;;;;;6248809;23;20371;-50
2022/08/13 02:04:20;;;;;;;2.90;2.37;;;18.70;50.60;;;;;;6248646;23;20445;-52
2022/08/13 02:06:46;;;;;;;2.43;2.23;;;18.70;50.80;;;;;;6248713;23;20353;-50
2022/08/13 02:09:12;;;;;;;3.80;3.23;;;18.60;51.00;;;;;;6249290;23;20385;-49
2022/08/13 02:11:38;;;;;;;2.57;2.37;;;18.70;51.00;;;;;;6248940;23;20232;-49
2022/08/13 02:14:05;;;;;;;5.00;2.93;;;18.60;51.00;;;;;;6249021;23;20394;-50
2022/08/13 02:16:34;;;;;;;2.70;2.50;;;18.70;51.20;;;;;;6248668;23;20409;-52
2022/08/13 02:19:01;;;;;;;2.60;2.40;;;18.60;51.10;;;;;;6248403;23;20374;-49
2022/08/13 02:21:31;;;;;;;2.67;2.33;;;18.60;51.20;;;;;;6248513;23;20360;-50
2022/08/13 02:23:58;;;;;;;2.80;2.10;;;18.60;51.40;;;;;;6248928;23;20497;-50
2022/08/13 02:26:27;;;;;;;2.70;2.40;;;18.60;51.50;;;;;;6248435;23;20415;-48
2022/08/13 02:28:54;;;;;;;2.50;2.30;;;18.60;51.50;;;;;;6248642;23;20416;-49
2022/08/13 02:31:20;;;;;;;3.47;2.47;;;18.70;51.60;;;;;;6248240;23;20357;-52
2022/08/13 02:33:46;;;;;;;2.10;1.90;;;18.70;51.70;;;;;;6247989;23;20455;-50
2022/08/13 02:36:12;;;;;;;3.60;2.40;;;18.60;51.60;;;;;;6247117;23;20683;-52
2022/08/13 02:38:38;;;;;;;2.77;2.33;;;18.60;51.80;;;;;;6247184;23;20427;-47
2022/08/13 02:43:50;;;;;;;3.10;2.20;;;18.60;51.90;;;;;;6248086;23;20392;-48
2022/08/13 02:46:16;;;;;;;3.23;2.73;;;18.60;52.00;;;;;;6248838;23;20398;-49
2022/08/13 02:48:42;;;;;;;2.93;2.30;;;18.60;52.00;;;;;;6249329;23;20487;-50
2022/08/13 02:51:11;;;;;;;3.30;2.30;;;18.60;52.10;;;;;;6246080;23;20365;-49
2022/08/13 02:53:38;;;;;;;2.90;2.63;;;18.50;52.30;;;;;;6246302;23;20217;-48
2022/08/13 02:56:06;;;;;;;3.63;2.80;;;18.40;52.60;;;;;;6245454;23;20368;-48
2022/08/13 02:58:32;;;;;;;2.90;2.60;;;18.40;52.70;;;;;;6246405;23;20384;-48
2022/08/13 03:00:58;;;;;;;3.63;2.97;;;18.40;52.60;;;;;;6246496;23;20448;-51
2022/08/13 03:03:26;;;;;;;3.00;2.70;;;18.40;52.60;;;;;;6246804;23;20212;-51
2022/08/13 03:05:53;;;;;;;3.03;2.63;;;18.40;52.60;;;;;;6246814;23;20412;-54
2022/08/13 03:08:18;;;;;;;2.87;2.40;;;18.40;52.90;;;;;;6247198;23;20706;-52
2022/08/13 03:10:44;;;;;;;2.33;2.13;;;18.40;52.90;;;;;;6247271;23;20357;-49
2022/08/13 03:13:15;;;;;;;2.70;2.50;;;18.40;53.00;;;;;;6247230;23;20443;-50
2022/08/13 03:15:45;;;;;;;2.77;2.53;;;18.40;53.10;;;;;;6247128;23;20359;-50
2022/08/13 03:18:11;;;;;;;2.67;2.47;;;18.30;53.20;;;;;;6247074;23;20422;-49
2022/08/13 03:20:38;;;;;;;2.90;2.60;;;18.30;53.40;;;;;;6247979;23;20353;-49
2022/08/13 03:23:04;;;;;;;2.83;2.53;;;18.20;53.50;;;;;;6247027;23;20668;-51
2022/08/13 03:25:30;;;;;;;2.70;2.50;;;18.20;53.60;;;;;;6248627;23;20365;-51
2022/08/13 03:27:58;;;;;;;3.33;2.43;;;18.10;53.50;;;;;;6249205;23;20419;-51
2022/08/13 03:30:24;;;;;;;4.97;3.00;;;18.10;53.60;;;;;;6248884;23;20174;-50
2022/08/13 03:32:52;;;;;;;2.50;2.30;;;18.00;53.40;;;;;;6247974;23;20444;-50
2022/08/13 03:35:20;;;;;;;2.83;2.63;;;18.00;53.40;;;;;;6248877;23;20352;-49
2022/08/13 03:37:54;;;;;;;3.00;2.80;;;18.00;53.60;;;;;;6248954;23;20380;-49
2022/08/13 03:40:22;;;;;;;3.13;2.87;;;18.00;53.70;;;;;;6248027;23;20372;-48
2022/08/13 03:42:49;;;;;;;2.70;2.50;;;18.00;53.70;;;;;;6248188;22;20377;-51
2022/08/13 03:45:16;;;;;;;3.37;3.07;;;18.00;53.60;;;;;;6248645;23;20355;-48
2022/08/13 03:47:42;;;;;;;3.07;2.87;;;18.00;53.50;;;;;;6250356;23;20366;-49
2022/08/13 03:50:09;;;;;;;2.27;2.07;;;18.00;53.50;;;;;;6249970;23;20683;-52
2022/08/13 03:52:36;;;;;;;3.17;2.50;;;18.00;53.40;;;;;;6249585;23;20459;-53
2022/08/13 03:55:13;;;;;;;3.43;3.00;;;17.90;53.80;;;;;;6248957;23;20466;-51
2022/08/13 03:57:41;;;;;;;2.60;2.40;;;17.90;53.80;;;;;;6249960;23;20384;-51
2022/08/13 04:00:11;;;;;;;2.80;2.53;;;17.90;53.90;;;;;;6249530;23;20373;-48
2022/08/13 04:02:41;;;;;;;2.33;2.13;;;17.90;54.00;;;;;;6250402;23;20364;-49
2022/08/13 04:05:17;;;;;;;3.20;2.90;;;17.90;54.00;;;;;;6249425;23;20811;-48
2022/08/13 04:07:45;;;;;;;3.07;2.63;;;17.90;53.90;;;;;;6249821;23;20353;-50
2022/08/13 04:10:12;;;;;;;2.90;2.70;;;17.90;54.00;;;;;;6249180;23;20356;-50
2022/08/13 04:12:38;;;;;;;3.23;2.93;;;17.90;54.40;;;;;;6249699;22;20407;-50
2022/08/13 04:15:06;;;;;;;3.40;2.40;;;17.90;54.50;;;;;;6248893;23;20766;-50
2022/08/13 04:17:36;;;;;;;2.83;2.57;;;17.90;54.20;;;;;;6249314;23;20360;-50
2022/08/13 04:20:04;;;;;;;2.63;2.43;;;17.90;54.50;;;;;;6248103;23;20378;-49
2022/08/13 04:22:29;;;;;;;3.07;2.77;;;17.90;54.60;;;;;;6248985;23;20359;-51
2022/08/13 04:24:55;;;;;;;3.17;2.50;;;17.80;54.40;;;;;;6250274;23;20355;-49
2022/08/13 04:27:21;;;;;;;3.07;2.30;;;17.80;54.60;;;;;;6249477;23;20524;-48
2022/08/13 04:29:48;;;;;;;2.90;2.60;;;17.80;54.70;;;;;;6249098;23;20496;-47
2022/08/13 04:32:14;;;;;;;3.63;2.60;;;17.80;54.70;;;;;;6249193;23;20172;-48
2022/08/13 04:34:39;;;;;;;2.90;2.60;;;17.80;54.90;;;;;;6249596;23;20742;-50
2022/08/13 04:37:07;;;;;;;2.60;2.40;;;17.90;54.90;;;;;;6249228;23;20140;-50
2022/08/13 04:39:33;;;;;;;3.53;2.53;;;18.00;54.90;;;;;;6250015;23;20597;-51
2022/08/13 04:42:00;;;;;;;3.23;3.03;;;18.10;54.70;;;;;;6249186;23;20412;-48
2022/08/13 04:44:25;;;;;;;3.03;2.73;;;18.10;54.50;;;;;;6250124;23;20207;-48
2022/08/13 04:46:51;;;;;;;3.20;2.90;;;18.10;54.40;;;;;;6249621;23;20367;-50
2022/08/13 04:49:16;;;;;;;2.57;2.30;;;18.10;54.50;;;;;;6249717;23;20166;-48
2022/08/13 04:51:42;;;;;;;5.30;2.77;;;18.10;54.60;;;;;;6249122;23;20138;-49
2022/08/13 04:54:08;;;;;;;3.40;3.10;;;18.20;54.70;;;;;;6249415;23;20155;-49
2022/08/13 04:56:33;;;;;;;2.93;2.63;;;18.20;54.60;;;;;;6249609;23;20148;-49
2022/08/13 04:59:00;;;;;;;2.90;2.63;;;18.30;55.00;;;;;;6249434;23;20152;-48
2022/08/13 05:01:27;;;;;;;3.30;3.00;;;18.30;54.40;;;;;;6248563;23;20134;-49
2022/08/13 05:03:53;;;;;;;3.23;2.60;;;18.40;54.40;;;;;;6248779;23;20672;-49
2022/08/13 05:06:21;;;;;;;3.03;2.83;;;18.40;54.40;;;;;;6249676;23;20380;-48
2022/08/13 05:08:49;;;;;;;3.70;3.17;;;18.40;54.20;;;;;;6249496;23;20163;-49
2022/08/13 05:11:18;;;;;;;2.70;2.50;;;18.50;54.10;;;;;;6249112;23;20438;-49
2022/08/13 05:13:45;;;;;;;3.20;2.97;;;18.50;54.00;;;;;;6249643;23;20479;-49
2022/08/13 05:16:15;;;;;;;3.40;3.10;;;18.60;54.00;;;;;;6249329;23;20403;-49
2022/08/13 05:18:44;;;;;;;3.80;2.70;;;18.60;54.10;;;;;;6249938;23;21133;-49
2022/08/13 05:21:10;;;;;;;2.80;2.60;;;18.60;54.00;;;;;;6249259;23;20404;-50
2022/08/13 05:23:38;;;;;;;3.20;2.90;;;18.60;53.90;;;;;;6249814;23;20381;-53
2022/08/13 05:26:04;;;;;;;3.70;3.40;;;18.60;53.70;;;;;;6249099;23;20450;-48
2022/08/13 05:28:31;;;;;;;3.67;3.37;;;18.60;53.90;;;;;;6248673;23;20387;-50
2022/08/13 05:30:57;;;;;;;3.10;2.73;;;18.60;54.00;;;;;;6249310;23;20369;-49
2022/08/13 05:33:25;;;;;;;3.50;3.20;;;18.70;54.10;;;;;;6248535;22;20504;-48
2022/08/13 05:35:55;;;;;;;3.10;2.87;;;18.70;54.00;;;;;;6248372;23;20359;-52
2022/08/13 05:38:22;;;;;;;2.83;2.63;;;18.70;53.80;;;;;;6247756;23;20388;-48
2022/08/13 05:40:52;;;;;;;4.03;3.50;;;18.80;53.80;;;;;;6246779;23;20694;-50
2022/08/13 05:43:20;;;;;;;3.93;3.47;;;18.80;53.70;;;;;;6247216;23;20396;-50
2022/08/13 05:45:57;;;;;;;3.73;3.43;;;18.80;53.50;;;;;;6247254;23;20393;-48
2022/08/13 05:48:27;;;;;;;3.23;3.00;;;18.90;53.70;;;;;;6247053;23;20664;-51
2022/08/13 05:50:54;;;;;;;4.27;2.80;;;18.90;53.60;;;;;;6247474;23;20703;-49
2022/08/13 05:53:19;;;;;;;3.20;2.87;;;19.00;53.60;;;;;;6246965;23;20436;-49
2022/08/13 05:55:45;;;;;;;3.17;2.97;;;19.00;53.60;;;;;;6247975;23;20664;-49
2022/08/13 05:58:12;;;;;;;3.23;2.93;;;19.00;53.60;;;;;;6246394;23;20579;-49
2022/08/13 06:03:26;;;;;;;3.47;3.17;;;19.20;53.30;;;;;;6246065;22;20466;-51
2022/08/13 06:05:57;;;;;;;3.20;2.90;;;19.30;53.20;;;;;;6245539;23;20431;-48
2022/08/13 06:08:28;;;;;;;3.23;2.80;;;19.40;53.10;;;;;;6244874;23;20691;-49
2022/08/13 06:10:54;;;;;;;3.90;3.20;;;19.50;52.80;;;;;;6247157;23;20442;-50
2022/08/13 06:13:20;;;;;;;3.20;3.00;;;19.60;52.90;;;;;;6248088;23;20432;-50
2022/08/13 06:15:57;;;;;;;2.97;2.67;;;19.70;53.00;;;;;;6248177;23;20459;-52
2022/08/13 06:18:24;;;;;;;4.70;3.20;;;19.80;52.90;;;;;;6248000;23;20210;-50
2022/08/13 06:20:56;;;;;;;6.30;3.17;;;19.80;52.60;;;;;;6248193;23;20418;-50
2022/08/13 06:23:24;;;;;;;3.17;2.87;;;20.00;52.30;;;;;;6248160;23;20450;-50
2022/08/13 06:25:53;;;;;;;3.27;2.97;;;19.90;52.70;;;;;;6247422;23;20668;-50
2022/08/13 06:28:20;;;;;;;3.73;3.00;;;20.00;52.60;;;;;;6248815;23;20751;-50
2022/08/13 06:30:48;;;;;;;3.03;2.83;;;20.00;52.60;;;;;;6247119;23;20462;-50
2022/08/13 06:33:14;;;;;;;3.27;2.97;;;20.10;52.90;;;;;;6245892;23;20487;-52
2022/08/13 06:35:40;;;;;;;4.13;2.97;;;20.30;53.00;;;;;;6243690;23;20394;-49
2022/08/13 06:38:06;;;;;;;2.90;2.60;;;20.40;52.70;;;;;;6245112;23;20160;-49
2022/08/13 06:40:35;;;;;;;3.87;2.83;;;20.50;52.70;;;;;;6245490;23;20221;-51
2022/08/13 06:43:01;;;;;;;3.17;2.97;;;20.70;52.50;;;;;;6246273;23;20395;-51
2022/08/13 06:45:27;;;;;;;3.23;2.93;;;20.90;52.10;;;;;;6246266;23;20356;-50
2022/08/13 06:47:53;;;;;;;3.40;3.10;;;21.00;51.80;;;;;;6246842;23;20390;-50
2022/08/13 06:50:19;;;;;;;3.40;2.80;;;21.20;51.50;;;;;;6248431;23;20356;-51
2022/08/13 06:52:44;;;;;;;2.90;2.70;;;21.40;51.10;;;;;;6246535;23;20211;-52
2022/08/13 06:55:10;;;;;;;2.77;2.57;;;21.60;50.80;;;;;;6247841;23;20133;-52
2022/08/13 06:57:37;;;;;;;3.07;2.87;;;21.80;50.80;;;;;;6246064;23;20199;-52
2022/08/13 07:00:07;;;;;;;3.73;2.90;;;21.90;50.50;;;;;;6245098;23;20130;-52
2022/08/13 07:02:35;;;;;;;3.23;2.93;;;22.00;49.90;;;;;;6245379;23;20355;-50
2022/08/13 07:05:00;;;;;;;4.47;3.00;;;22.20;49.70;;;;;;6247009;23;20363;-51
2022/08/13 07:07:26;;;;;;;2.97;2.77;;;22.40;49.60;;;;;;6245322;23;20370;-53
2022/08/13 07:09:52;;;;;;;3.10;2.67;;;22.50;49.40;;;;;;6245775;23;20431;-52
2022/08/13 07:12:18;;;;;;;3.70;3.40;;;22.60;49.40;;;;;;6245513;23;20165;-51
2022/08/13 07:14:44;;;;;;;3.13;2.93;;;22.70;49.20;;;;;;6246954;22;20386;-50
2022/08/13 07:17:11;;;;;;;2.90;2.70;;;22.80;48.90;;;;;;6246517;23;20517;-52
2022/08/13 07:19:37;;;;;;;3.40;3.10;;;22.90;49.10;;;;;;6247820;23;20394;-50
2022/08/13 07:22:05;;;;;;;3.10;2.90;;;23.10;49.20;;;;;;6248734;23;20353;-51
2022/08/13 07:24:31;;;;;;;3.47;3.17;;;23.30;48.70;;;;;;6250081;23;20398;-50
2022/08/13 07:27:07;;;;;;;3.17;2.97;;;23.40;48.40;;;;;;6250010;23;20384;-50
2022/08/13 07:29:35;;;;;;;3.43;3.00;;;23.50;48.20;;;;;;6248482;23;20718;-50
2022/08/13 07:32:03;;;;;;;3.50;3.20;;;23.70;48.00;;;;;;6249395;23;20457;-51
2022/08/13 07:34:32;;;;;;;3.37;3.10;;;23.90;47.90;;;;;;6248729;23;20429;-50
2022/08/13 07:36:59;;;;;;;5.60;3.00;;;24.00;47.90;;;;;;6249968;23;20834;-52
2022/08/13 07:39:26;;;;;;;2.90;2.70;;;24.10;47.30;;;;;;6250119;23;20380;-52
2022/08/13 07:41:52;;;;;;;2.77;2.57;;;24.30;47.00;;;;;;6249181;23;20439;-53
2022/08/13 07:44:20;;;;;;;2.67;2.47;;;24.40;47.00;;;;;;6248961;23;20415;-51
2022/08/13 07:46:46;;;;;;;3.27;2.97;;;24.60;47.20;;;;;;6248140;23;20461;-50
2022/08/13 07:49:13;;;;;;;4.10;3.50;;;24.80;46.90;;;;;;6247043;23;20387;-50
2022/08/13 07:51:41;;;;;;;2.90;2.70;;;25.00;46.10;;;;;;6247376;23;20361;-54
2022/08/13 07:54:07;;;;;;;3.10;2.90;;;25.20;45.80;;;;;;6245850;23;20434;-53
2022/08/13 07:56:33;;;;;;;3.00;2.80;;;25.40;45.70;;;;;;6245672;23;20347;-51
2022/08/13 07:59:09;;;;;;;3.80;3.50;;;25.60;45.50;;;;;;6243181;23;20400;-49
2022/08/13 08:01:45;;;;;;;3.63;3.33;;;25.80;45.30;;;;;;6246554;23;20798;-53
2022/08/13 08:04:14;;;;;;;2.80;2.60;;;25.90;44.10;;;;;;6248162;23;20376;-51
2022/08/13 08:06:40;;;;;;;3.33;3.03;;;26.00;44.20;;;;;;6249307;23;20985;-50
2022/08/13 08:09:09;;;;;;;2.90;2.60;;;26.30;44.60;;;;;;6246594;23;20381;-52
2022/08/13 08:14:20;;;;;;;5.60;3.10;;;26.70;43.10;;;;;;6248254;23;20442;-50
2022/08/13 08:16:46;;;;;;;3.30;3.00;;;26.80;42.30;;;;;;6247925;23;20351;-51
2022/08/13 08:19:14;;;;;;;3.17;2.87;;;26.70;42.60;;;;;;6247570;23;20230;-51
2022/08/13 08:21:40;;;;;;;3.40;3.20;;;26.70;42.60;;;;;;6248822;23;20344;-50
2022/08/13 08:24:06;;;;;;;2.93;2.70;;;26.60;42.50;;;;;;6249430;23;20392;-53
2022/08/13 08:26:34;;;;;;;3.93;2.63;;;26.60;42.70;;;;;;6248773;23;20379;-54
2022/08/13 08:29:04;;;;;;;3.00;2.80;;;26.90;43.10;;;;;;6248429;23;20478;-50
2022/08/13 08:31:32;;;;;;;3.30;3.00;;;27.30;42.70;;;;;;6247435;23;20352;-52
2022/08/13 08:34:00;;;;;;;2.83;2.63;;;27.40;41.50;;;;;;6246188;23;20449;-52
2022/08/13 08:36:27;;;;;;;4.97;3.23;;;27.70;41.80;;;;;;6247548;23;20388;-49
2022/08/13 08:44:29;;;;;;;3.03;2.77;;;28.60;40.50;;;;;;6244075;23;20392;-51
2022/08/13 08:46:56;;;;;;;4.30;2.83;;;28.20;39.30;;;;;;6244194;23;20878;-51
2022/08/13 08:49:24;;;;;;;3.07;2.87;;;27.90;39.90;;;;;;6246964;23;20358;-51
2022/08/13 08:51:50;;;;;;;3.27;2.97;;;27.50;40.50;;;;;;6246345;23;20354;-52
2022/08/13 08:54:18;;;;;;;3.27;3.00;;;27.10;40.70;;;;;;6247069;23;20381;-54
2022/08/13 08:56:45;;;;;;;3.00;2.80;;;26.90;41.30;;;;;;6246969;23;20353;-51
2022/08/13 08:59:13;;;;;;;2.77;2.50;;;27.10;41.40;;;;;;6245525;23;20427;-53
2022/08/13 09:01:42;;;;;;;3.30;3.00;;;27.10;40.90;;;;;;6247134;23;20357;-53
2022/08/13 09:04:12;;;;;;;3.87;3.30;;;27.10;40.70;;;;;;6246631;23;20379;-50
2022/08/13 09:06:38;;;;;;;2.90;2.70;;;26.80;41.30;;;;;;6245584;23;20394;-51
2022/08/13 09:09:07;;;;;;;5.93;3.47;;;26.70;41.90;;;;;;6244789;23;20392;-51
2022/08/13 09:11:36;;;;;;;4.20;3.10;;;26.50;41.30;;;;;;6246279;23;20387;-50
2022/08/13 09:14:07;;;;;;;3.30;2.90;;;26.10;42.20;;;;;;6247099;23;20428;-54
2022/08/13 09:16:37;;;;;;;3.37;3.07;;;25.90;42.80;;;;;;6248813;23;20353;-52
2022/08/13 09:19:03;;;;;;;3.37;3.07;;;25.80;43.10;;;;;;6249315;23;20771;-50
2022/08/13 09:21:29;;;;;;;3.00;2.80;;;25.90;43.10;;;;;;6247074;23;20587;-50
2022/08/13 09:23:55;;;;;;;3.47;3.17;;;26.00;43.10;;;;;;6249294;23;20434;-53
2022/08/13 09:26:21;;;;;;;2.90;2.70;;;26.20;43.10;;;;;;6246914;23;20213;-50
2022/08/13 09:28:47;;;;;;;3.00;2.80;;;26.20;43.00;;;;;;6246975;22;20384;-52
2022/08/13 09:31:13;;;;;;;4.57;4.10;;;26.40;43.20;;;;;;6246517;23;20392;-54
2022/08/13 09:33:39;;;;;;;4.13;3.00;;;26.80;42.90;;;;;;6247197;23;20415;-53
2022/08/13 09:36:09;;;;;;;3.10;2.90;;;27.10;42.00;;;;;;6247853;23;20609;-50
2022/08/13 09:38:36;;;;;;;2.90;2.60;;;27.50;41.90;;;;;;6248169;23;20366;-54
2022/08/13 09:41:17;;;;;;;3.27;3.03;;;27.90;41.50;;;;;;6248667;23;20357;-50
2022/08/13 09:43:44;;;;;;;2.93;2.73;;;28.10;40.90;;;;;;6248805;23;20388;-50
2022/08/13 09:46:11;;;;;;;3.20;2.90;;;28.10;40.00;;;;;;6247854;23;20365;-52
2022/08/13 09:48:37;;;;;;;3.70;3.07;;;28.00;41.00;;;;;;6248130;22;20394;-54
2022/08/13 09:51:13;;;;;;;3.47;3.17;;;27.90;40.60;;;;;;6247920;23;20412;-51
2022/08/13 09:53:46;;;;;;;3.90;3.60;;;27.70;40.60;;;;;;6249028;23;20438;-54
2022/08/13 09:56:17;;;;;;;6.00;3.37;;;27.90;41.10;;;;;;6247630;23;20858;-52
2022/08/13 09:58:49;;;;;;;3.47;3.23;;;28.50;40.40;;;;;;6245983;23;20695;-46
2022/08/13 10:01:15;;;;;;;3.20;2.90;;;29.10;39.70;;;;;;6245220;23;20328;-44
2022/08/13 10:03:42;;;;;;;3.30;3.00;;;30.00;39.50;;;;;;6245631;23;20700;-46
2022/08/13 10:06:09;;;;;;;5.73;3.40;;;30.90;38.30;;;;;;6244488;23;20371;-46
2022/08/13 10:08:35;;;;;;;3.90;3.50;;;31.40;37.30;;;;;;6245984;23;20471;-47
2022/08/13 10:11:01;;;;;;;3.43;2.90;;;31.80;36.90;;;;;;6245498;23;20603;-45
2022/08/13 10:13:28;;;;;;;4.30;3.27;;;31.90;35.60;;;;;;6245877;23;20184;-46
2022/08/13 10:15:54;;;;;;;4.93;3.43;;;31.90;34.80;;;;;;6244865;23;20623;-44
2022/08/13 10:18:19;;;;;;;3.87;3.57;;;31.20;36.00;;;;;;6243812;23;20398;-45
2022/08/13 10:20:45;;;;;;;3.40;3.10;;;30.80;36.40;;;;;;6242513;23;20361;-47
2022/08/13 10:23:15;;;;;;;3.30;3.00;;;30.40;36.40;;;;;;6245216;22;20181;-45
2022/08/13 10:25:43;;;;;;;4.63;3.43;;;30.20;36.00;;;;;;6241460;23;20425;-47
2022/08/13 10:28:15;;;;;;;3.60;3.30;;;30.10;36.20;;;;;;6241941;23;20366;-46
2022/08/13 10:30:42;;;;;;;3.60;3.30;;;29.80;36.70;;;;;;6244679;23;20429;-39
2022/08/13 10:33:08;;;;;;;4.07;3.77;;;30.00;37.20;;;;;;6244936;23;20449;-39
2022/08/13 10:35:34;;;;;;;2.90;2.70;;;30.30;36.90;;;;;;6243385;23;20315;-40
2022/08/13 10:38:00;;;;;;;4.07;3.33;;;30.80;37.00;;;;;;6244078;22;20366;-42
2022/08/13 10:40:26;;;;;;;5.50;3.33;;;31.50;35.70;;;;;;6245365;23;20446;-39
2022/08/13 10:42:53;;;;;;;3.07;2.80;;;31.40;35.00;;;;;;6248042;23;20165;-39
2022/08/13 10:45:19;;;;;;;4.07;3.77;;;30.90;35.00;;;;;;6245643;23;20368;-43
2022/08/13 10:47:50;;;;;;;3.50;2.73;;;30.30;35.00;;;;;;6247452;23;20472;-43
2022/08/13 10:50:18;;;;;;;4.13;2.73;;;30.20;35.90;;;;;;6245959;23;20364;-39
2022/08/13 10:52:45;;;;;;;4.47;3.80;;;30.10;35.80;;;;;;6245329;23;20848;-39
2022/08/13 10:55:12;;;;;;;3.33;3.07;;;30.00;36.60;;;;;;6219964;23;20459;-44
2022/08/13 10:57:40;;;;;;;3.77;3.40;;;30.20;36.50;;;;;;6243605;23;20345;-39
2022/08/13 11:00:07;;;;;;;3.20;3.00;;;30.20;36.50;;;;;;6245895;23;20388;-41
2022/08/13 11:02:33;;;;;;;3.60;3.10;;;30.20;36.50;;;;;;6245676;23;20366;-40
2022/08/13 11:05:00;;;;;;;3.50;3.23;;;30.00;36.10;;;;;;6245953;23;20353;-40
2022/08/13 11:07:26;;;;;;;3.77;3.47;;;29.90;36.10;;;;;;6248455;23;20131;-40
2022/08/13 11:09:52;;;;;;;3.67;3.30;;;29.70;35.80;;;;;;6248123;23;20421;-40
2022/08/13 11:12:19;;;;;;;3.80;3.50;;;29.60;36.00;;;;;;6246750;23;20410;-40
2022/08/13 11:14:46;;;;;;;3.30;3.00;;;29.60;36.30;;;;;;6250144;23;20279;-40
2022/08/13 11:17:17;;;;;;;5.23;3.13;;;29.80;36.70;;;;;;6249018;23;20363;-39
2022/08/13 11:19:45;;;;;;;3.37;2.97;;;29.90;36.40;;;;;;6246755;23;20378;-39
2022/08/13 11:22:12;;;;;;;4.97;3.10;;;30.40;36.30;;;;;;6247197;23;20352;-41
2022/08/13 11:24:37;;;;;;;3.47;3.10;;;31.40;35.70;;;;;;6251072;23;20441;-40
2022/08/13 11:27:05;;;;;;;3.40;3.10;;;32.60;35.10;;;;;;6249429;23;20783;-42
2022/08/13 11:29:31;;;;;;;2.70;2.50;;;33.40;33.60;;;;;;6249638;23;20160;-41
2022/08/13 11:31:57;;;;;;;3.20;2.90;;;34.30;33.20;;;;;;6250317;23;20654;-40
2022/08/13 11:34:25;;;;;;;4.03;3.10;;;35.10;31.60;;;;;;6250296;23;20424;-40
2022/08/13 11:36:51;;;;;;;5.10;3.33;;;35.90;31.20;;;;;;6247323;23;20155;-40
2022/08/13 11:39:17;;;;;;;2.97;2.77;;;36.70;30.70;;;;;;6245946;23;20439;-41
2022/08/13 11:41:43;;;;;;;3.67;3.37;;;37.20;29.80;;;;;;6245937;23;20371;-42
2022/08/13 11:44:08;;;;;;;5.70;3.00;;;37.60;29.60;;;;;;6246508;23;20542;-42
2022/08/13 11:46:34;;;;;;;2.80;2.60;;;38.00;29.40;;;;;;6245557;23;20458;-41
2022/08/13 11:48:59;;;;;;;3.20;2.93;;;38.10;28.90;;;;;;6245555;23;20161;-41
2022/08/13 11:51:25;;;;;;;4.20;3.30;;;38.10;29.00;;;;;;6246723;23;20213;-41
2022/08/13 11:53:51;;;;;;;3.20;3.00;;;38.10;28.80;;;;;;6248804;23;20197;-40
2022/08/13 11:56:16;;;;;;;3.37;3.10;;;38.10;28.90;;;;;;6247429;23;20220;-40
2022/08/13 11:58:42;;;;;;;3.90;3.20;;;38.20;28.40;;;;;;6247447;23;20185;-39
2022/08/13 12:01:08;;;;;;;3.47;3.00;;;38.20;28.30;;;;;;6247681;23;20131;-39
2022/08/13 12:03:39;;;;;;;2.83;2.63;;;37.70;28.20;;;;;;6249024;23;20159;-39
2022/08/13 12:06:05;;;;;;;3.57;3.30;;;37.50;28.50;;;;;;6222310;23;20131;-40
2022/08/13 12:08:31;;;;;;;4.03;2.90;;;37.40;28.50;;;;;;6249191;23;20372;-42
2022/08/13 12:10:56;;;;;;;3.20;3.00;;;37.50;28.80;;;;;;6247608;23;20358;-39
2022/08/13 12:13:22;;;;;;;2.97;2.77;;;37.90;29.00;;;;;;6248136;23;20597;-41
2022/08/13 12:15:48;;;;;;;3.23;3.03;;;38.50;28.30;;;;;;6249679;23;20130;-41
2022/08/13 12:18:16;;;;;;;4.00;2.80;;;38.20;27.60;;;;;;6248589;23;20165;-43
2022/08/13 12:24:05;;;;;;;3.27;2.97;;;37.00;28.50;;;;;;6248746;23;20387;-45
2022/08/13 12:26:31;;;;;;;3.20;2.90;;;37.10;28.60;;;;;;6249814;23;20389;-43
2022/08/13 12:28:57;;;;;;;3.60;3.30;;;37.00;28.90;;;;;;6245955;23;20377;-43
2022/08/13 12:31:23;;;;;;;3.90;3.60;;;37.00;28.50;;;;;;6245262;23;20154;-42
2022/08/13 12:33:48;;;;;;;3.90;3.60;;;36.20;29.20;;;;;;6248062;23;20195;-41
2022/08/13 12:36:14;;;;;;;3.47;2.87;;;36.10;29.20;;;;;;6248867;23;20201;-40
2022/08/13 12:38:40;;;;;;;3.37;3.07;;;36.20;28.90;;;;;;6247676;23;20204;-41
2022/08/13 12:41:05;;;;;;;3.50;2.90;;;36.20;29.10;;;;;;6248918;23;20182;-41
2022/08/13 12:43:31;;;;;;;4.73;3.03;;;36.60;29.20;;;;;;6247860;23;20140;-40
2022/08/13 12:45:57;;;;;;;3.33;3.13;;;37.10;29.00;;;;;;6248990;23;20154;-40
2022/08/13 12:48:30;;;;;;;3.57;3.27;;;37.70;28.10;;;;;;6248978;23;20131;-40
2022/08/13 12:50:56;;;;;;;3.90;3.30;;;37.80;27.90;;;;;;6249320;22;20408;-40
2022/08/13 12:53:22;;;;;;;3.60;3.30;;;37.40;28.20;;;;;;6247518;23;20391;-40
2022/08/13 12:55:47;;;;;;;2.83;2.63;;;37.40;28.30;;;;;;6246718;23;20151;-44
2022/08/13 12:58:25;;;;;;;5.10;2.80;;;37.70;28.20;;;;;;6247213;23;20345;-43
2022/08/13 13:00:55;;;;;;;2.97;2.77;;;38.00;28.40;;;;;;6247327;23;20565;-42
2022/08/13 13:03:22;;;;;;;3.67;3.37;;;38.00;28.10;;;;;;6247099;23;20365;-42
2022/08/13 13:05:50;;;;;;;3.77;3.47;;;38.10;27.90;;;;;;6248443;23;20669;-40
2022/08/13 13:08:21;;;;;;;2.90;2.70;;;38.10;28.00;;;;;;6249401;23;20336;-40
2022/08/13 13:10:48;;;;;;;3.60;3.17;;;38.00;27.70;;;;;;6249741;23;20396;-43
2022/08/13 13:13:15;;;;;;;3.50;3.00;;;37.20;28.00;;;;;;6248763;23;20405;-43
2022/08/13 13:15:41;;;;;;;3.00;2.80;;;36.10;28.30;;;;;;6249333;23;20469;-41
2022/08/13 13:18:12;;;;;;;3.40;3.10;;;35.80;29.10;;;;;;6249485;23;20605;-41
2022/08/13 13:20:41;;;;;;;3.37;3.10;;;35.70;28.60;;;;;;6249838;23;20158;-42